Terminal Aerodrome Forecast
Issued by NWS

Home | Current Version | Previous Version | Text Only | Print | Product List | Glossary On
Versions: 1 2 3 4 5 6 7 8 9 10 11 12 13 14 15 16 17 18
000
FTUS41 KBGM 221137
TAFITH
TAF
KITH 221137Z 2212/2312 17008KT P6SM SCT070
     FM221400 19010G15KT P6SM SCT040 BKN080
     FM221700 21012G22KT P6SM BKN040
      TEMPO 2219/2223 VRB35KT 3SM +TSRA OVC022CB
     FM222300 24010KT 5SM BR BKN025
     FM230400 29010KT P6SM SCT080=

USA.gov is the U.S. government's official web portal to all federal, state and local government web resources and services.